Latest Weather Observations for Alva Beach

IDQ60801

Issued at 7:32 am EST Monday 4 May 2015 (issued every 30 minutes, with the page automatically refreshed every 10 minutes)

About weather observations | Map of weather stations | Latest weather observations for QLD | Other Formats
Station Details ID: 033295 Name: ALVA BEACH Lat: -19.46 Lon: 147.48 Height: 7.5 m
Data from the previous 72 hours. | See also: Recent months at Alva Beach
Date/Time
EST
Temp
°C
App
Temp
°C
Dew
Point
Rel
Hum
%
Delta-T
°C
Wind Press
QNH
hPa
Press
MSL
hPa
Rain
since 9 am
mm
Dir
 
Spd
km/h
Gust
km/h
Spd
kts
Gust
kts
04/07:30am 21.2 22.3 18.0 82 2.0 S 9 13 5 7 1013.8 1013.8 0.0
04/07:00am 20.1 21.4 18.4 90 1.1 S 9 13 5 7 1013.7 1013.7 0.0
04/06:30am 20.0 21.4 18.7 92 0.8 S 9 15 5 8 1013.4 1013.4 0.0
04/06:00am 19.3 20.4 18.0 92 0.8 SSW 9 13 5 7 1013.0 1013.0 0.0
04/05:30am 19.5 21.0 18.0 91 0.9 SSW 7 9 4 5 1012.6 1012.6 0.0
04/05:00am 19.6 21.0 17.9 90 1.0 SSW 7 11 4 6 1012.5 1012.5 0.0
04/04:30am 19.7 20.7 17.8 89 1.2 SSW 9 13 5 7 1012.5 1012.5 0.0
04/04:00am 20.1 21.5 17.7 86 1.5 SSW 7 11 4 6 1012.6 1012.6 0.0
04/03:30am 20.8 22.1 17.2 80 2.2 SSE 6 9 3 5 1012.4 1012.4 0.0
04/03:00am 21.7 22.7 16.9 74 2.9 ENE 7 13 4 7 1012.5 1012.5 0.0
04/02:30am 24.6 25.5 19.2 72 3.5 ENE 13 17 7 9 1012.5 1012.5 0.0
04/02:00am 24.3 25.1 18.2 68 3.8 ENE 11 13 6 7 1012.7 1012.7 0.0
04/01:30am 24.7 25.4 18.9 70 3.7 ENE 13 17 7 9 1013.0 1013.0 0.0
04/01:00am 24.9 25.3 19.0 69 3.8 ENE 15 19 8 10 1013.3 1013.3 0.0
04/12:30am 25.0 25.6 19.4 71 3.6 ENE 15 19 8 10 1013.6 1013.6 0.0
04/12:00am 25.2 26.6 19.6 71 3.6 E 11 15 6 8 1013.7 1013.7 0.0
 
Date/Time
EST
Temp
°C
App
Temp
°C
Dew
Point
Rel
Hum
%
Delta-T
°C
Wind Press
QNH
hPa
Press
MSL
hPa
Rain
since 9 am
mm
Dir
 
Spd
km/h
Gust
km/h
Spd
kts
Gust
kts
03/11:30pm 25.2 26.4 19.8 72 3.5 ENE 13 19 7 10 1013.7 1013.7 0.0
03/11:00pm 24.6 26.1 19.7 74 3.2 ENE 11 15 6 8 1013.8 1013.8 0.0
03/10:30pm 24.0 25.5 18.9 73 3.2 ENE 9 15 5 8 1013.9 1013.9 0.0
03/10:00pm 22.2 22.8 17.6 75 2.8 ENE 11 13 6 7 1013.8 1013.8 0.0
03/09:30pm 22.8 24.3 17.5 72 3.3 NE 6 7 3 4 1013.6 1013.6 0.0
03/09:00pm 24.0 25.8 18.2 70 3.6 NNE 6 9 3 5 1013.3 1013.3 0.0
03/08:30pm 24.1 25.6 17.6 67 4.0 N 6 7 3 4 1013.0 1013.0 0.0
03/08:00pm 24.7 26.1 17.7 65 4.4 N 7 11 4 6 1012.9 1012.9 0.0
03/07:30pm 25.1 26.2 18.1 65 4.4 N 9 15 5 8 1012.3 1012.3 0.0
03/07:00pm 25.4 26.3 18.3 65 4.5 N 11 17 6 9 1011.9 1011.9 0.0
03/06:30pm 25.5 25.3 17.7 62 4.9 N 15 19 8 10 1011.6 1011.6 0.0
03/06:00pm 25.6 26.1 17.5 61 5.1 N 11 19 6 10 1011.3 1011.3 0.0
03/05:30pm 25.8 25.3 16.9 58 5.5 NNE 15 19 8 10 1010.9 1010.9 0.0
03/05:00pm 26.2 25.0 16.2 54 6.1 NNE 17 20 9 11 1010.8 1010.8 0.0
03/04:30pm 26.6 25.4 17.1 56 5.9 NNE 19 22 10 12 1010.4 1010.4 0.0
03/04:00pm 26.6 25.4 17.4 57 5.8 NNE 20 24 11 13 1010.4 1010.4 0.0
03/03:30pm 26.6 25.9 17.4 57 5.8 NE 17 20 9 11 1010.5 1010.5 0.0
03/03:00pm 26.6 26.1 17.9 59 5.5 NE 17 20 9 11 1010.6 1010.6 0.0
03/02:30pm 26.7 25.7 17.5 57 5.8 NE 19 22 10 12 1010.8 1010.8 0.0
03/02:00pm 27.3 26.4 17.8 56 6.0 NE 19 22 10 12 1011.2 1011.2 0.0
03/01:30pm 27.2 26.1 17.4 55 6.2 NE 19 20 10 11 1011.5 1011.5 0.0
03/01:00pm 27.2 26.9 18.2 58 5.7 ENE 17 20 9 11 1011.9 1011.9 0.0
03/12:30pm 26.9 27.2 18.7 60 5.2 E 15 20 8 11 1012.4 1012.4 0.0
03/12:00pm 27.3 28.0 18.9 60 5.4 E 13 19 7 10 1013.1 1013.1 0.0
03/11:30am 27.4 28.4 19.5 62 5.1 E 13 17 7 9 1013.8 1013.8 0.0
03/11:00am 27.1 28.4 19.2 62 5.1 E 11 17 6 9 1014.4 1014.4 0.0
03/10:30am 28.0 29.4 17.8 54 6.5 ESE 7 13 4 7 1014.7 1014.7 0.0
03/10:00am 26.6 28.1 17.7 58 5.6 S 6 11 3 6 1014.9 1014.9 0.0
03/09:30am 26.3 28.0 18.4 61 5.0 SSE 7 13 4 7 1015.1 1015.1 0.0
03/09:00am 25.8 27.4 19.2 67 4.2 S 9 13 5 7 1014.9 1014.9 0.0
03/08:30am 24.6 26.7 19.0 71 3.6 SSE 6 13 3 7 1014.7 1014.7 0.0
03/08:00am 22.7 24.8 18.9 79 2.4 SW 6 9 3 5 1014.5 1014.5 0.0
03/07:30am 21.0 23.2 19.3 90 1.1 SSW 6 9 3 5 1014.3 1014.3 0.0
03/07:00am 19.8 21.5 18.6 93 0.7 SW 7 11 4 6 1014.0 1014.0 0.0
03/06:30am 19.2 20.8 17.9 92 0.8 SW 6 9 3 5 1013.7 1013.7 0.0
03/06:00am 19.7 21.4 18.4 92 0.8 SW 7 9 4 5 1013.3 1013.3 0.0
03/05:30am 20.4 22.3 18.9 91 0.9 SSW 7 9 4 5 1012.9 1012.9 0.0
03/05:00am 20.8 22.8 19.1 90 1.1 S 7 11 4 6 1012.7 1012.7 0.0
03/04:30am 20.8 23.0 19.1 90 1.1 SSE 6 9 3 5 1012.6 1012.6 0.0
03/04:00am 20.9 22.9 19.2 90 1.1 S 7 11 4 6 1012.5 1012.5 0.0
03/03:30am 20.9 22.6 19.4 91 1.0 S 9 13 5 7 1012.6 1012.6 0.0
03/03:00am 20.6 22.3 19.4 93 0.8 SSW 9 13 5 7 1012.6 1012.6 0.0
03/02:30am 20.5 22.2 19.3 93 0.8 SSW 9 13 5 7 1012.8 1012.8 0.0
03/02:00am 20.5 22.4 19.0 91 0.9 SW 7 9 4 5 1012.6 1012.6 0.0
03/01:30am 20.9 24.3 19.4 91 1.0 CALM 0 0 0 0 1012.8 1012.8 0.0
03/01:00am 21.5 25.2 20.0 91 1.0 CALM 0 0 0 0 1013.1 1013.1 0.0
03/12:30am 21.4 24.3 19.9 91 1.0 SE 4 7 2 4 1013.1 1013.1 0.0
03/12:00am 21.3 23.7 19.6 90 1.1 SSE 6 9 3 5 1013.5 1013.5 0.0
 
Date/Time
EST
Temp
°C
App
Temp
°C
Dew
Point
Rel
Hum
%
Delta-T
°C
Wind Press
QNH
hPa
Press
MSL
hPa
Rain
since 9 am
mm
Dir
 
Spd
km/h
Gust
km/h
Spd
kts
Gust
kts
02/11:30pm 21.5 23.3 19.6 89 1.2 S 9 9 5 5 1013.7 1013.7 0.0
02/11:00pm 21.8 23.3 18.8 83 1.9 S 9 9 5 5 1013.9 1013.9 0.0
02/10:30pm 22.6 24.3 18.6 78 2.5 SSW 7 9 4 5 1014.2 1014.2 0.0
02/10:00pm 24.3 26.4 18.9 72 3.4 NNE 6 11 3 6 1014.2 1014.2 0.0
02/09:30pm 25.2 26.6 19.6 71 3.6 NNE 11 15 6 8 1013.9 1013.9 0.0
02/09:00pm 25.2 25.7 19.3 70 3.8 NNE 15 19 8 10 1013.6 1013.6 0.0
02/08:30pm 25.4 25.8 19.1 68 4.0 NE 15 17 8 9 1013.6 1013.6 0.0
02/08:00pm 25.5 25.5 18.9 67 4.2 NE 17 20 9 11 1013.1 1013.1 0.0
02/07:30pm 25.6 25.8 19.3 68 4.0 NE 17 20 9 11 1012.7 1012.7 0.0
02/07:00pm 25.7 25.7 18.9 66 4.3 NE 17 20 9 11 1012.3 1012.3 0.0
02/06:30pm 25.6 25.9 18.8 66 4.3 NE 15 19 8 10 1012.1 1012.1 0.0
02/06:00pm 25.5 25.6 19.2 68 4.0 NE 17 22 9 12 1011.4 1011.4 0.0
02/05:30pm 25.5 25.7 19.4 69 3.9 NE 17 19 9 10 1011.3 1011.3 0.0
02/05:00pm 25.6 26.5 19.3 68 4.1 ENE 13 17 7 9 1011.2 1011.2 0.0
02/04:30pm 26.0 26.7 18.9 65 4.5 ENE 13 17 7 9 1011.0 1011.0 0.0
02/04:00pm 26.3 26.4 19.2 65 4.6 ENE 17 19 9 10 1011.0 1011.0 0.0
02/03:30pm 26.3 25.9 18.9 63 4.7 ENE 19 24 10 13 1010.9 1010.9 0.0
02/03:00pm 26.5 26.3 19.4 65 4.6 ENE 19 20 10 11 1011.1 1011.1 0.0
02/02:30pm 26.3 25.9 18.9 63 4.7 ENE 19 22 10 12 1011.4 1011.4 0.0
02/02:00pm 26.8 27.0 19.4 64 4.8 NE 17 20 9 11 1011.6 1011.6 0.0
02/01:30pm 26.5 26.9 19.9 67 4.3 E 17 22 9 12 1011.9 1011.9 0.0
02/01:00pm 26.7 27.8 19.6 65 4.6 NE 13 17 7 9 1012.3 1012.3 0.0
02/12:30pm 26.9 28.1 20.0 66 4.5 NE 13 15 7 8 1012.7 1012.7 0.0
02/12:00pm 25.1 26.9 19.5 71 3.6 NNE 9 11 5 6 1013.3 1013.3 0.0
02/11:30am 24.8 26.4 20.7 78 2.7 N 13 17 7 9 1013.8 1013.8 0.0
02/11:00am 25.8 27.3 19.7 69 3.9 E 11 17 6 9 1014.0 1014.0 0.0
02/10:30am 26.8 28.4 19.2 63 4.9 ESE 9 15 5 8 1014.3 1014.3 0.0
02/10:00am 25.7 27.4 19.3 67 4.1 SE 9 15 5 8 1014.6 1014.6 0.0
02/09:30am 25.9 27.9 19.1 66 4.4 ESE 7 13 4 7 1014.7 1014.7 0.0
02/09:00am 26.4 29.0 20.5 70 3.9 ESE 7 13 4 7 1014.4 1014.4 0.0
02/08:30am 23.8 26.0 19.5 77 2.8 SSE 7 11 4 6 1014.4 1014.4 0.0
02/08:00am 23.3 26.2 20.6 85 1.8 S 6 9 3 5 1014.3 1014.3 0.0
02/07:30am 22.5 25.0 20.2 87 1.5 S 7 9 4 5 1014.0 1014.0 0.0
02/07:00am 22.2 24.6 20.1 88 1.4 S 7 13 4 7 1013.8 1013.8 0.0
02/06:30am 22.2 24.3 20.1 88 1.4 S 9 13 5 7 1013.4 1013.4 0.0
02/06:00am 23.8 26.5 21.3 86 1.6 E 9 15 5 8 1012.7 1012.7 0.0
02/05:30am 23.7 26.8 21.4 87 1.5 ESE 7 15 4 8 1012.6 1012.6 0.0
02/05:00am 23.4 25.9 21.1 87 1.5 ESE 9 15 5 8 1012.5 1012.5 0.0
02/04:30am 23.3 25.9 21.2 88 1.4 ESE 9 13 5 7 1012.4 1012.4 0.0
02/04:00am 22.7 25.6 20.6 88 1.4 SSE 6 9 3 5 1012.1 1012.1 0.0
02/03:30am 22.2 24.8 20.1 88 1.4 S 6 9 3 5 1012.3 1012.3 0.0
02/03:00am 22.3 24.7 18.9 81 2.1 SSE 4 7 2 4 1012.3 1012.3 0.0
02/02:30am 22.5 24.5 19.1 81 2.2 S 7 9 4 5 1012.3 1012.3 0.0
02/02:00am 23.2 26.0 18.9 77 2.7 W 2 9 1 5 1012.4 1012.4 0.0
02/01:30am 23.6 25.7 18.9 75 3.0 NW 6 7 3 4 1012.6 1012.6 0.0
02/01:00am 23.9 26.0 19.0 74 3.1 NNW 6 9 3 5 1012.9 1012.9 0.0
02/12:30am 23.9 25.9 19.2 75 3.0 NNW 7 9 4 5 1012.8 1012.8 0.0
02/12:00am 23.5 25.5 18.8 75 3.0 NW 6 7 3 4 1013.2 1013.2 0.0
 
Date/Time
EST
Temp
°C
App
Temp
°C
Dew
Point
Rel
Hum
%
Delta-T
°C
Wind Press
QNH
hPa
Press
MSL
hPa
Rain
since 9 am
mm
Dir
 
Spd
km/h
Gust
km/h
Spd
kts
Gust
kts
01/11:30pm 23.6 26.0 18.9 75 3.0 NW 4 7 2 4 1013.1 1013.1 0.0
01/11:00pm 23.6 25.7 18.9 75 3.0 NW 6 7 3 4 1013.0 1013.0 0.0
01/10:30pm 23.4 25.6 19.3 78 2.6 NNW 6 9 3 5 1013.0 1013.0 0.0
01/10:00pm 23.3 25.3 18.8 76 2.8 NNW 6 9 3 5 1013.1 1013.1 0.0
01/09:30pm 24.3 26.4 18.9 72 3.4 N 6 9 3 5 1012.9 1012.9 0.0
01/09:00pm 24.6 25.9 19.4 73 3.3 NNE 11 15 6 8 1012.7 1012.7 0.0
01/08:30pm 24.7 26.4 19.3 72 3.5 NNE 9 15 5 8 1012.4 1012.4 0.0
01/08:00pm 24.8 25.8 19.4 72 3.5 NNE 13 15 7 8 1012.1 1012.1 0.0
01/07:30pm 24.8 25.5 19.6 73 3.3 N 15 17 8 9 1011.8 1011.8 0.0
01/07:00pm 24.9 25.2 19.5 72 3.5 N 17 20 9 11 1011.4 1011.4 0.0
01/06:30pm 25.0 24.7 19.1 70 3.8 NNE 19 22 10 12 1011.2 1011.2 0.0
01/06:00pm 24.9 24.5 19.0 69 3.8 NNE 19 24 10 13 1011.1 1011.1 0.0
01/05:30pm 24.9 24.4 19.0 69 3.8 NNE 20 24 11 13 1011.0 1011.0 0.0
01/05:00pm 25.1 24.3 19.2 70 3.8 NNE 22 26 12 14 1011.0 1011.0 0.0
01/04:30pm 25.2 24.0 18.4 66 4.3 NNE 22 26 12 14 1011.1 1011.1 0.0
01/04:00pm 25.4 24.4 18.8 67 4.2 NNE 22 26 12 14 1011.2 1011.2 0.0
01/03:30pm 25.4 24.4 18.8 67 4.2 NNE 22 26 12 14 1011.2 1011.2 0.0
01/03:00pm 25.4 24.4 18.8 67 4.2 NNE 22 28 12 15 1011.3 1011.3 0.0
01/02:30pm 25.4 24.1 18.1 64 4.6 NE 22 28 12 15 1011.6 1011.6 0.0
01/02:00pm 25.2 23.7 17.7 63 4.7 NE 22 26 12 14 1011.7 1011.7 0.0
01/01:30pm 25.6 24.6 17.5 61 5.1 NE 19 24 10 13 1012.2 1012.2 0.0
01/01:00pm 25.8 24.7 17.2 59 5.4 NE 19 22 10 12 1012.6 1012.6 0.0
01/12:30pm 25.6 24.1 15.3 53 6.2 ENE 17 20 9 11 1013.1 1013.1 0.0
01/12:00pm 25.7 25.2 16.0 55 5.9 NE 13 17 7 9 1013.6 1013.6 0.0
01/11:30am 25.4 25.5 15.4 54 6.0 NE 9 13 5 7 1014.0 1014.0 0.0
01/11:00am 24.8 24.9 15.4 56 5.7 ENE 9 13 5 7 1014.6 1014.6 0.0
01/10:30am 24.6 24.6 15.2 55 5.6 ENE 9 13 5 7 1014.9 1014.9 0.0
01/10:00am 24.6 25.0 14.7 54 5.9 S 6 11 3 6 1015.4 1015.4 0.0
01/09:30am 23.7 23.4 14.4 56 5.5 S 9 17 5 9 1015.9 1015.9 0.0
01/09:00am 22.6 22.3 14.4 60 4.8 SSE 9 17 5 9 1016.1 1016.1 0.0
01/08:30am 21.6 21.0 14.5 64 4.2 SSW 11 19 6 10 1015.9 1015.9 0.0
01/08:00am 20.9 20.1 15.0 69 3.5 SSW 13 22 7 12 1015.6 1015.6 0.0

Other Formats:

Comma delimited format used in spreadsheet applications
http://www.bom.gov.au/fwo/IDQ60801/IDQ60801.95296.axf

JavaScript Object Notation format (JSON) in row-major order
http://www.bom.gov.au/fwo/IDQ60801/IDQ60801.95296.json